Time;durP1;ratioP1;P1;durP2;ratioP2;P2;SDS_P1;SDS_P2;PMS_P1;PMS_P2;Temp;Humidity;BMP_temperature;BMP_pressure;BME280_temperature;BME280_humidity;BME280_pressure;Samples;Min_cycle;Max_cycle;Signal;HPM_P1;HPM_P2
2022/04/02 00:00:53;;;;;;;6.93;2.53;;;1.90;99.90;;;;;;4865093;29;20091;-95
2022/04/02 00:03:19;;;;;;;7.55;2.63;;;1.80;99.90;;;;;;4862219;29;20064;-96
2022/04/02 00:05:45;;;;;;;6.15;2.55;;;1.80;99.90;;;;;;4861138;29;20092;-94
2022/04/02 00:08:11;;;;;;;8.45;2.75;;;1.80;99.90;;;;;;4856098;29;20065;-95
2022/04/02 00:10:37;;;;;;;6.25;2.53;;;1.70;99.90;;;;;;4861403;29;20107;-94
2022/04/02 00:13:03;;;;;;;6.82;2.47;;;1.90;99.90;;;;;;4875764;29;20049;-95
2022/04/02 00:15:29;;;;;;;7.40;2.58;;;1.70;99.90;;;;;;4861800;29;20053;-96
2022/04/02 00:17:55;;;;;;;5.95;2.50;;;1.70;99.90;;;;;;4862038;29;20040;-95
2022/04/02 00:20:20;;;;;;;8.13;2.72;;;1.70;99.90;;;;;;4857278;29;20458;-95
2022/04/02 00:25:31;;;;;;;7.43;3.10;;;1.70;99.90;;;;;;4878044;29;20056;-95
2022/04/02 00:27:56;;;;;;;8.23;2.65;;;1.70;99.90;;;;;;4844572;29;20052;-95
2022/04/02 00:30:22;;;;;;;9.45;3.70;;;1.60;99.90;;;;;;4861446;29;20139;-95
2022/04/02 00:32:48;;;;;;;7.72;2.65;;;1.60;99.90;;;;;;4862494;29;20049;-96
2022/04/02 00:35:14;;;;;;;7.60;2.30;;;1.60;99.90;;;;;;4875871;29;20061;-94
2022/04/02 00:37:40;;;;;;;7.40;2.78;;;1.60;99.90;;;;;;4861452;29;20045;-95
2022/04/02 00:40:07;;;;;;;8.02;2.63;;;1.60;99.90;;;;;;4877250;29;20117;-96
2022/04/02 00:42:33;;;;;;;8.45;3.15;;;1.50;99.90;;;;;;4876413;29;20048;-96
2022/04/02 00:44:59;;;;;;;5.70;2.30;;;1.50;99.90;;;;;;4855260;29;20049;-95
2022/04/02 00:47:24;;;;;;;7.22;2.72;;;1.50;99.90;;;;;;4880457;29;20059;-96
2022/04/02 00:49:54;;;;;;;8.40;3.65;;;1.40;99.90;;;;;;4879765;29;20147;-95
2022/04/02 00:52:20;;;;;;;7.25;2.80;;;1.40;99.90;;;;;;4880275;29;20117;-95
2022/04/02 00:54:49;;;;;;;6.75;2.63;;;1.40;99.90;;;;;;4848664;29;20053;-95
2022/04/02 00:57:15;;;;;;;8.07;2.78;;;1.30;99.90;;;;;;4875955;29;20080;-96
2022/04/02 00:59:41;;;;;;;8.98;2.95;;;1.30;99.90;;;;;;4896684;29;20052;-96
2022/04/02 01:02:07;;;;;;;6.53;2.58;;;1.30;99.90;;;;;;4891676;29;20043;-96
2022/04/02 01:04:32;;;;;;;8.25;2.75;;;1.30;99.90;;;;;;4875184;29;20052;-95
2022/04/02 01:06:59;;;;;;;6.93;2.25;;;1.20;99.90;;;;;;4879686;29;20414;-96
2022/04/02 01:09:25;;;;;;;11.20;3.58;;;1.30;99.90;;;;;;4870979;29;20051;-96
2022/04/02 01:11:52;;;;;;;7.43;2.85;;;1.20;99.90;;;;;;4897567;29;20059;-95
2022/04/02 01:14:18;;;;;;;8.88;3.13;;;1.30;99.90;;;;;;4896430;29;20060;-94
2022/04/02 01:16:44;;;;;;;8.18;2.90;;;1.30;99.90;;;;;;4862738;29;20059;-95
2022/04/02 01:19:10;;;;;;;8.45;2.78;;;1.30;99.90;;;;;;4897303;29;20080;-95
2022/04/02 01:21:36;;;;;;;8.18;2.75;;;1.30;99.90;;;;;;4883662;29;20056;-94
2022/04/02 01:24:03;;;;;;;6.90;2.40;;;1.20;99.90;;;;;;4895115;29;20041;-94
2022/04/02 01:26:28;;;;;;;6.93;2.60;;;1.20;99.90;;;;;;4896643;29;20131;-95
2022/04/02 01:28:56;;;;;;;5.18;2.15;;;1.20;99.90;;;;;;4874987;29;20127;-95
2022/04/02 01:31:23;;;;;;;7.85;2.97;;;1.20;99.90;;;;;;4895071;29;20052;-96
2022/04/02 01:33:49;;;;;;;7.63;2.50;;;1.10;99.90;;;;;;4897527;29;20044;-95
2022/04/02 01:36:16;;;;;;;7.57;3.05;;;1.10;99.90;;;;;;4878924;29;20451;-94
2022/04/02 01:38:41;;;;;;;7.32;2.90;;;1.10;99.90;;;;;;4896928;29;20045;-94
2022/04/02 01:41:07;;;;;;;6.05;2.38;;;1.10;99.90;;;;;;4899911;29;20043;-95
2022/04/02 01:43:34;;;;;;;5.60;2.42;;;1.10;99.90;;;;;;4906524;29;20091;-96
2022/04/02 01:46:01;;;;;;;8.15;2.85;;;1.10;99.90;;;;;;4881415;29;20052;-95
2022/04/02 01:48:27;;;;;;;7.40;2.03;;;1.10;99.90;;;;;;4868055;29;20096;-95
2022/04/02 01:50:53;;;;;;;9.30;3.65;;;1.00;99.90;;;;;;4844930;29;20053;-95
2022/04/02 01:53:20;;;;;;;7.88;3.10;;;1.00;99.90;;;;;;4860265;29;20980;-94
2022/04/02 01:55:46;;;;;;;6.32;2.72;;;1.00;99.90;;;;;;4875936;29;20049;-95
2022/04/02 01:58:12;;;;;;;6.07;2.40;;;0.90;99.90;;;;;;4875463;29;20041;-94
2022/04/02 02:00:38;;;;;;;7.93;2.83;;;0.90;99.90;;;;;;4860428;29;20509;-95
2022/04/02 02:03:06;;;;;;;7.78;2.58;;;0.90;99.90;;;;;;4876306;29;20495;-96
2022/04/02 02:05:35;;;;;;;7.47;2.40;;;0.90;99.90;;;;;;4876029;29;20048;-94
2022/04/02 02:08:02;;;;;;;7.70;3.13;;;0.80;99.90;;;;;;4859451;29;20064;-95
2022/04/02 02:10:29;;;;;;;7.28;2.70;;;0.80;99.90;;;;;;4879631;29;20140;-95
2022/04/02 02:12:55;;;;;;;7.15;2.97;;;0.80;99.90;;;;;;4866707;29;20187;-95
2022/04/02 02:15:20;;;;;;;9.38;3.17;;;0.90;99.90;;;;;;4867266;29;20353;-95
2022/04/02 02:17:47;;;;;;;9.40;2.67;;;0.90;99.90;;;;;;4846244;29;20037;-94
2022/04/02 02:20:15;;;;;;;6.43;2.42;;;0.90;99.90;;;;;;4862321;29;20045;-95
2022/04/02 02:22:41;;;;;;;6.88;2.78;;;0.90;99.90;;;;;;4860837;29;20053;-95
2022/04/02 02:25:09;;;;;;;6.93;2.38;;;0.90;99.90;;;;;;4859895;29;20141;-94
2022/04/02 02:27:35;;;;;;;10.25;3.13;;;0.90;99.90;;;;;;4856433;29;20042;-94
2022/04/02 02:30:02;;;;;;;7.32;2.63;;;0.80;99.90;;;;;;4842908;29;20041;-95
2022/04/02 02:32:31;;;;;;;9.65;2.85;;;0.90;99.90;;;;;;4877088;29;20403;-95
2022/04/02 02:37:42;;;;;;;8.35;2.70;;;0.80;99.90;;;;;;4860265;29;20061;-95
2022/04/02 02:40:10;;;;;;;8.55;2.78;;;0.70;99.90;;;;;;4840727;29;20467;-96
2022/04/02 02:42:36;;;;;;;6.38;2.22;;;0.80;99.90;;;;;;4859674;29;20451;-93
2022/04/02 02:45:02;;;;;;;7.45;2.80;;;0.80;99.90;;;;;;4872494;29;20135;-96
2022/04/02 02:47:27;;;;;;;9.02;3.35;;;0.80;99.90;;;;;;4882076;29;20072;-95
2022/04/02 02:49:53;;;;;;;7.22;2.85;;;0.80;99.90;;;;;;4869717;29;20048;-96
2022/04/02 02:52:19;;;;;;;8.38;3.08;;;0.80;99.90;;;;;;4882870;29;20049;-94
2022/04/02 02:54:45;;;;;;;7.18;2.47;;;0.80;99.90;;;;;;4863955;29;20045;-95
2022/04/02 02:57:10;;;;;;;6.72;2.67;;;0.80;99.90;;;;;;4881158;29;20044;-95
2022/04/02 02:59:36;;;;;;;8.25;2.38;;;0.70;99.90;;;;;;4851481;29;20100;-95
2022/04/02 03:02:03;;;;;;;7.65;2.75;;;0.70;99.90;;;;;;4896937;29;20036;-94
2022/04/02 03:04:30;;;;;;;7.05;2.35;;;0.70;99.90;;;;;;4862376;29;20084;-95
2022/04/02 03:06:56;;;;;;;6.97;2.60;;;0.70;99.90;;;;;;4866902;29;20048;-95
2022/04/02 03:09:22;;;;;;;7.38;2.92;;;0.60;99.90;;;;;;4899116;29;20056;-95
2022/04/02 03:11:49;;;;;;;7.10;2.85;;;0.60;99.90;;;;;;4882460;29;20052;-94
2022/04/02 03:14:15;;;;;;;6.05;2.20;;;0.60;99.90;;;;;;4872632;29;20526;-94
2022/04/02 03:16:41;;;;;;;6.53;2.60;;;0.60;99.90;;;;;;4898991;29;20099;-96
2022/04/02 03:19:07;;;;;;;6.80;2.45;;;0.60;99.90;;;;;;4876298;29;20084;-95
2022/04/02 03:21:33;;;;;;;8.73;2.97;;;0.50;99.90;;;;;;4882860;29;20044;-95
2022/04/02 03:23:59;;;;;;;5.90;2.70;;;0.50;99.90;;;;;;4898209;29;20040;-95
2022/04/02 03:26:26;;;;;;;6.07;2.20;;;0.60;99.90;;;;;;4882249;29;20418;-96
2022/04/02 03:28:52;;;;;;;6.63;2.63;;;0.40;99.90;;;;;;4881315;29;20041;-95
2022/04/02 03:31:18;;;;;;;7.00;2.85;;;0.40;99.90;;;;;;4896006;29;20542;-95
2022/04/02 03:33:43;;;;;;;7.47;2.88;;;0.40;99.90;;;;;;4895473;29;20056;-95
2022/04/02 03:36:12;;;;;;;10.30;3.35;;;0.40;99.90;;;;;;4880102;29;20044;-94
2022/04/02 03:38:38;;;;;;;7.25;3.35;;;0.40;99.90;;;;;;4882413;29;20088;-95
2022/04/02 03:41:04;;;;;;;6.43;2.47;;;0.40;99.90;;;;;;4884532;29;20620;-94
2022/04/02 03:43:31;;;;;;;7.40;2.70;;;0.40;99.90;;;;;;4888802;29;20049;-95
2022/04/02 03:47:08;;;;;;;7.60;2.55;;;0.40;99.90;;;;;;4885314;29;20459;-94
2022/04/02 03:48:43;;;;;;;7.82;2.75;;;0.40;99.90;;;;;;4899730;29;20063;-94
2022/04/02 03:51:09;;;;;;;8.13;2.65;;;0.30;99.90;;;;;;4910795;29;20059;-94
2022/04/02 03:53:35;;;;;;;8.10;2.88;;;0.30;99.90;;;;;;4903179;29;20102;-95
2022/04/02 03:56:01;;;;;;;6.75;2.85;;;0.20;99.90;;;;;;4902260;29;20032;-95
2022/04/02 03:58:27;;;;;;;7.68;3.05;;;0.30;99.90;;;;;;4887187;29;20566;-94
2022/04/02 04:00:53;;;;;;;6.45;2.30;;;0.20;99.90;;;;;;4895882;29;20044;-95
2022/04/02 04:03:19;;;;;;;7.72;2.58;;;0.20;99.90;;;;;;4863150;29;20037;-95
2022/04/02 04:05:45;;;;;;;6.00;2.08;;;0.20;99.90;;;;;;4882156;29;20041;-94
2022/04/02 04:08:11;;;;;;;8.55;2.60;;;0.20;99.90;;;;;;4881132;29;20539;-94
2022/04/02 04:10:36;;;;;;;7.47;2.45;;;0.20;99.90;;;;;;4901540;29;20057;-94
2022/04/02 04:13:02;;;;;;;7.15;2.60;;;0.20;99.90;;;;;;4884865;29;20040;-93
2022/04/02 04:15:28;;;;;;;7.35;2.95;;;0.20;99.90;;;;;;4895713;29;20053;-95
2022/04/02 04:17:56;;;;;;;7.88;2.88;;;0.20;99.90;;;;;;4899273;29;20432;-93
2022/04/02 04:20:22;;;;;;;7.35;2.75;;;0.20;99.90;;;;;;4889228;29;20084;-95
2022/04/02 04:22:48;;;;;;;8.85;2.75;;;0.20;99.90;;;;;;4892250;29;20052;-93
2022/04/02 04:25:14;;;;;;;6.85;2.25;;;0.20;99.90;;;;;;4911777;29;20059;-95
2022/04/02 04:27:39;;;;;;;8.75;3.13;;;0.20;99.90;;;;;;4901601;29;20138;-94
2022/04/02 04:30:06;;;;;;;9.20;2.80;;;0.20;99.90;;;;;;4900733;29;20056;-95
2022/04/02 04:32:33;;;;;;;8.50;2.67;;;0.20;99.90;;;;;;4864747;29;20135;-94
2022/04/02 04:34:58;;;;;;;8.63;2.92;;;0.20;99.90;;;;;;4879618;29;20049;-94
2022/04/02 04:37:24;;;;;;;9.15;3.05;;;0.20;99.90;;;;;;4896716;29;20047;-94
2022/04/02 04:39:50;;;;;;;6.13;2.38;;;0.20;99.90;;;;;;4874482;29;20132;-94
2022/04/02 04:42:16;;;;;;;7.30;2.90;;;0.20;99.90;;;;;;4889395;29;20291;-94
2022/04/02 04:44:43;;;;;;;10.15;3.20;;;0.20;99.90;;;;;;4863207;29;20068;-93
2022/04/02 04:47:09;;;;;;;7.20;2.80;;;0.20;99.90;;;;;;4894969;29;20048;-94
2022/04/02 04:49:35;;;;;;;8.20;2.70;;;0.20;99.90;;;;;;4863757;29;20051;-93
2022/04/02 04:52:01;;;;;;;6.30;2.78;;;0.10;99.90;;;;;;4873624;29;20048;-94
2022/04/02 04:54:27;;;;;;;6.85;2.90;;;0.10;99.90;;;;;;4896133;29;20486;-95
2022/04/02 04:56:52;;;;;;;7.43;2.67;;;0.00;99.90;;;;;;4878395;29;20055;-94
2022/04/02 04:59:18;;;;;;;7.82;2.92;;;0.10;99.90;;;;;;4894094;29;20044;-94
2022/04/02 05:01:47;;;;;;;7.55;2.72;;;0.10;99.90;;;;;;4878254;29;20447;-96
2022/04/02 05:04:13;;;;;;;7.63;2.63;;;0.10;99.90;;;;;;4878856;29;20049;-94
2022/04/02 05:06:39;;;;;;;10.10;3.60;;;0.10;99.90;;;;;;4893525;29;20040;-94
2022/04/02 05:09:05;;;;;;;7.13;2.60;;;0.10;99.90;;;;;;4878784;29;20052;-95
2022/04/02 05:11:32;;;;;;;7.80;2.63;;;0.10;99.90;;;;;;4878472;29;20138;-96
2022/04/02 05:13:57;;;;;;;8.07;3.15;;;0.10;99.90;;;;;;4878285;29;20075;-94
2022/04/02 05:16:23;;;;;;;7.28;2.90;;;0.10;99.90;;;;;;4894645;29;20139;-95
2022/04/02 05:18:50;;;;;;;9.13;2.92;;;0.10;99.90;;;;;;4861934;29;20482;-95
2022/04/02 05:21:16;;;;;;;9.75;3.25;;;0.10;99.90;;;;;;4879007;29;20037;-95
2022/04/02 05:23:42;;;;;;;9.98;3.38;;;0.10;99.90;;;;;;4879583;29;20493;-94
2022/04/02 05:26:08;;;;;;;8.38;3.30;;;0.20;99.90;;;;;;4893480;29;20048;-94
2022/04/02 05:28:34;;;;;;;9.45;3.58;;;0.20;99.90;;;;;;4878089;29;20550;-93
2022/04/02 05:31:00;;;;;;;8.38;3.08;;;0.20;99.90;;;;;;4878118;29;20341;-94
2022/04/02 05:33:25;;;;;;;8.27;3.17;;;0.20;99.90;;;;;;4895798;29;20053;-94
2022/04/02 05:35:51;;;;;;;8.20;2.70;;;0.30;99.90;;;;;;4879591;29;20056;-93
2022/04/02 05:38:17;;;;;;;8.85;2.90;;;0.30;99.90;;;;;;4847714;29;20081;-93
2022/04/02 05:40:42;;;;;;;8.68;3.00;;;0.30;99.90;;;;;;4880577;29;20055;-93
2022/04/02 05:43:09;;;;;;;10.25;4.00;;;0.30;99.90;;;;;;4895281;29;20032;-93
2022/04/02 05:45:34;;;;;;;8.77;4.03;;;0.30;99.90;;;;;;4901538;29;20067;-93
2022/04/02 05:48:00;;;;;;;7.07;2.65;;;0.40;99.90;;;;;;4889562;29;20045;-94
2022/04/02 05:50:27;;;;;;;9.45;3.20;;;0.40;99.90;;;;;;4876443;29;20057;-95
2022/04/02 05:52:53;;;;;;;8.80;3.42;;;0.50;99.90;;;;;;4861225;29;20041;-93
2022/04/02 05:55:19;;;;;;;9.27;3.88;;;0.50;99.90;;;;;;4876240;29;20088;-91
2022/04/02 05:57:47;;;;;;;12.25;3.53;;;0.50;99.90;;;;;;4859200;29;20044;-95
2022/04/02 06:00:16;;;;;;;15.93;5.47;;;0.60;99.90;;;;;;4876900;29;20084;-95
2022/04/02 06:02:43;;;;;;;12.25;3.25;;;0.60;99.90;;;;;;4878714;29;20073;-95
2022/04/02 06:05:11;;;;;;;14.48;5.43;;;0.70;99.90;;;;;;4842806;29;20045;-93
2022/04/02 06:07:36;;;;;;;8.63;3.00;;;0.70;99.90;;;;;;4859153;29;20052;-93
2022/04/02 06:10:04;;;;;;;14.40;5.10;;;0.80;99.90;;;;;;4874991;29;20045;-91
2022/04/02 06:12:31;;;;;;;33.85;13.05;;;0.80;99.90;;;;;;4874432;29;20045;-93
2022/04/02 06:14:57;;;;;;;50.10;19.80;;;0.90;99.90;;;;;;4875468;29;20632;-93
2022/04/02 06:17:25;;;;;;;9.68;4.03;;;0.90;99.90;;;;;;4860621;29;20045;-95
2022/04/02 06:19:52;;;;;;;10.25;3.70;;;1.10;99.90;;;;;;4849524;29;20087;-93
2022/04/02 06:22:21;;;;;;;11.82;4.47;;;1.10;99.90;;;;;;4878157;29;20049;-95
2022/04/02 06:24:46;;;;;;;14.82;8.45;;;1.20;99.90;;;;;;4878395;29;20490;-95
2022/04/02 06:27:13;;;;;;;13.57;5.70;;;1.30;99.90;;;;;;4864350;29;20056;-93
2022/04/02 06:29:38;;;;;;;14.48;5.95;;;1.40;99.90;;;;;;4864795;29;20382;-95
2022/04/02 06:32:05;;;;;;;8.88;3.70;;;1.50;99.90;;;;;;4867217;29;20053;-96
2022/04/02 06:34:30;;;;;;;12.15;6.43;;;1.50;99.90;;;;;;4883576;29;20545;-96
2022/04/02 06:36:57;;;;;;;8.43;3.63;;;1.60;99.90;;;;;;4886674;29;20041;-96
2022/04/02 06:39:22;;;;;;;7.97;3.63;;;1.70;99.90;;;;;;4885617;29;20052;-95
2022/04/02 06:41:48;;;;;;;8.85;3.92;;;1.80;99.90;;;;;;4877016;29;20032;-95
2022/04/02 06:44:15;;;;;;;9.45;3.63;;;1.80;99.90;;;;;;4862392;29;20104;-94
2022/04/02 06:46:42;;;;;;;18.65;9.25;;;1.90;99.90;;;;;;4855578;29;20052;-95
2022/04/02 06:49:09;;;;;;;12.73;5.97;;;2.00;99.90;;;;;;4871403;29;20056;-94
2022/04/02 06:51:35;;;;;;;8.70;4.20;;;2.10;99.90;;;;;;4854654;29;20462;-94
2022/04/02 06:54:01;;;;;;;12.98;5.28;;;2.10;99.90;;;;;;4865202;29;20089;-95
2022/04/02 06:56:27;;;;;;;11.82;3.78;;;2.20;99.90;;;;;;4870553;29;20322;-96
2022/04/02 06:58:53;;;;;;;15.65;7.75;;;2.30;99.90;;;;;;4874329;29;20052;-95
2022/04/02 07:01:19;;;;;;;15.13;6.97;;;2.40;99.90;;;;;;4867990;29;20522;-96
2022/04/02 07:03:44;;;;;;;9.30;4.43;;;2.50;99.90;;;;;;4869595;29;20045;-96
2022/04/02 07:06:10;;;;;;;12.40;3.50;;;2.60;99.90;;;;;;4870209;29;20048;-95
2022/04/02 07:08:36;;;;;;;10.73;3.78;;;2.60;99.90;;;;;;4875926;29;20507;-96
2022/04/02 07:11:03;;;;;;;32.13;20.23;;;2.70;99.90;;;;;;4854455;29;20045;-94
2022/04/02 07:13:29;;;;;;;14.02;6.85;;;2.70;99.90;;;;;;4878205;29;20139;-96
2022/04/02 07:15:55;;;;;;;16.13;8.68;;;2.90;99.90;;;;;;4880778;29;20052;-95
2022/04/02 07:18:24;;;;;;;35.47;25.58;;;2.90;99.90;;;;;;4863012;29;20053;-94
2022/04/02 07:20:53;;;;;;;12.02;3.80;;;3.00;99.90;;;;;;4882043;29;20045;-95
2022/04/02 07:23:21;;;;;;;12.93;5.80;;;3.10;99.90;;;;;;4863221;29;20407;-94
2022/04/02 07:25:49;;;;;;;10.90;6.28;;;3.20;99.90;;;;;;4877917;29;20552;-93
2022/04/02 07:28:15;;;;;;;11.40;5.28;;;3.30;99.90;;;;;;4866589;29;20033;-96
2022/04/02 07:30:41;;;;;;;12.25;3.88;;;3.40;99.90;;;;;;4867431;29;20045;-95
2022/04/02 07:33:07;;;;;;;11.98;4.45;;;3.50;99.90;;;;;;4868426;29;20041;-96
2022/04/02 07:35:55;;;;;;;7.85;3.35;;;3.60;99.90;;;;;;4852073;29;20076;-96
2022/04/02 07:38:50;;;;;;;9.68;4.00;;;3.70;99.90;;;;;;4853443;29;20041;-96
2022/04/02 07:41:56;;;;;;;23.83;12.77;;;3.80;99.90;;;;;;4846843;29;20060;-95
2022/04/02 07:45:02;;;;;;;8.90;3.15;;;4.00;99.90;;;;;;4861241;29;20151;-95
2022/04/02 07:47:41;;;;;;;8.00;3.30;;;4.20;99.90;;;;;;4873657;29;20068;-96
2022/04/02 07:50:11;;;;;;;10.07;3.72;;;4.40;99.90;;;;;;4851031;29;20136;-94
2022/04/02 07:52:37;;;;;;;10.48;3.88;;;4.50;99.90;;;;;;4887191;29;20076;-94
2022/04/02 07:55:06;;;;;;;9.98;3.67;;;4.70;99.90;;;;;;4873532;29;20044;-95
2022/04/02 07:57:42;;;;;;;7.10;3.10;;;4.80;99.90;;;;;;4870222;29;20131;-94
2022/04/02 08:00:19;;;;;;;10.90;4.53;;;4.90;99.90;;;;;;4874185;29;20060;-95
2022/04/02 08:02:47;;;;;;;8.13;3.25;;;4.90;99.90;;;;;;4871932;29;20041;-95
2022/04/02 08:05:19;;;;;;;8.20;3.13;;;5.00;99.90;;;;;;4871851;29;20025;-92
2022/04/02 08:07:54;;;;;;;7.97;3.30;;;5.10;99.90;;;;;;4840837;29;20049;-93
2022/04/02 08:10:27;;;;;;;9.02;3.05;;;5.10;99.90;;;;;;4872359;29;20050;-93
2022/04/02 08:12:55;;;;;;;7.85;3.40;;;5.10;99.90;;;;;;4869835;29;20046;-94
2022/04/02 08:15:25;;;;;;;8.77;3.10;;;5.20;99.90;;;;;;4885351;29;20033;-92
2022/04/02 08:17:56;;;;;;;7.13;2.88;;;5.20;99.90;;;;;;4900481;29;20025;-93
2022/04/02 08:20:25;;;;;;;9.10;3.05;;;5.30;99.90;;;;;;4890158;29;20048;-96
2022/04/02 08:22:51;;;;;;;7.88;3.08;;;5.30;99.90;;;;;;4877813;29;21015;-95
2022/04/02 08:25:18;;;;;;;7.55;3.15;;;5.30;99.90;;;;;;4878000;29;20086;-95
2022/04/02 08:27:46;;;;;;;6.53;3.20;;;5.50;99.90;;;;;;4875264;29;20056;-95
2022/04/02 08:30:23;;;;;;;7.63;3.03;;;5.50;99.90;;;;;;4859377;29;20060;-94
2022/04/02 08:33:26;;;;;;;7.93;3.33;;;5.50;99.90;;;;;;4865212;29;20045;-95
2022/04/02 08:36:17;;;;;;;7.55;3.33;;;5.50;99.90;;;;;;4959574;24;20080;-95
2022/04/02 08:39:04;;;;;;;7.82;3.00;;;5.40;99.90;;;;;;4956713;29;20060;-95
2022/04/02 08:42:00;;;;;;;7.15;3.55;;;5.30;99.90;;;;;;4934878;29;20048;-95
2022/04/02 08:44:45;;;;;;;7.93;3.60;;;5.20;99.90;;;;;;4936540;29;20529;-92
2022/04/02 08:47:29;;;;;;;8.45;3.42;;;5.00;99.90;;;;;;4946388;29;20094;-95
2022/04/02 08:50:10;;;;;;;9.68;3.42;;;5.00;99.90;;;;;;4942962;28;20043;-93
2022/04/02 08:52:51;;;;;;;7.88;3.10;;;5.00;99.90;;;;;;4932863;29;20129;-94
2022/04/02 08:55:23;;;;;;;8.65;2.97;;;5.00;99.90;;;;;;4925444;29;20052;-95
2022/04/02 08:57:53;;;;;;;7.10;3.00;;;5.00;99.90;;;;;;4932042;29;20151;-92
2022/04/02 09:00:24;;;;;;;6.90;2.78;;;4.80;99.90;;;;;;4957052;29;20056;-93
2022/04/02 09:03:27;;;;;;;10.68;3.58;;;4.80;99.90;;;;;;4922879;29;20048;-93
2022/04/02 09:06:34;;;;;;;7.60;3.55;;;4.70;99.90;;;;;;4930641;29;20055;-94
2022/04/02 09:09:07;;;;;;;6.43;3.15;;;4.60;99.90;;;;;;4935713;29;20047;-93
2022/04/02 09:11:56;;;;;;;20.52;8.82;;;4.60;99.90;;;;;;4946332;29;20043;-95
2022/04/02 09:14:37;;;;;;;13.90;4.97;;;4.50;99.90;;;;;;4917117;29;20051;-92
2022/04/02 09:17:50;;;;;;;37.47;15.18;;;4.50;99.90;;;;;;4924810;29;20534;-94
2022/04/02 09:20:55;;;;;;;21.00;9.63;;;4.50;99.90;;;;;;4946812;29;20469;-90
2022/04/02 09:23:41;;;;;;;9.63;3.90;;;4.50;99.90;;;;;;4927985;29;20043;-92
2022/04/02 09:26:26;;;;;;;8.85;3.40;;;4.60;99.90;;;;;;4939477;29;20086;-93
2022/04/02 09:29:01;;;;;;;8.07;3.42;;;4.50;99.90;;;;;;4911947;29;20043;-95
2022/04/02 09:32:06;;;;;;;7.75;2.35;;;4.60;99.90;;;;;;4926164;29;20063;-95
2022/04/02 09:34:41;;;;;;;7.47;2.70;;;4.70;99.90;;;;;;4932557;29;20062;-93
2022/04/02 09:37:47;;;;;;;7.05;2.92;;;4.70;99.90;;;;;;4936407;29;20039;-94
2022/04/02 09:40:12;;;;;;;6.13;2.53;;;4.90;99.90;;;;;;4929817;29;20136;-93
2022/04/02 09:42:47;;;;;;;6.47;2.10;;;5.10;99.90;;;;;;4941253;29;20052;-93
2022/04/02 09:45:19;;;;;;;5.22;2.17;;;5.20;99.90;;;;;;4934643;29;20277;-96
2022/04/02 09:47:48;;;;;;;8.07;2.40;;;5.30;98.20;;;;;;4943910;29;20044;-92
2022/04/02 09:50:17;;;;;;;6.07;1.77;;;5.40;99.90;;;;;;4942272;29;20414;-94
2022/04/02 09:52:52;;;;;;;8.20;2.38;;;5.50;99.60;;;;;;4932607;29;20051;-94
2022/04/02 09:55:29;;;;;;;6.03;2.45;;;5.60;98.90;;;;;;4963922;29;20035;-94
2022/04/02 09:58:07;;;;;;;5.53;2.30;;;5.70;97.30;;;;;;4938827;28;20061;-96
2022/04/02 10:00:48;;;;;;;5.72;2.03;;;5.60;94.60;;;;;;4918789;29;20043;-95
2022/04/02 10:03:52;;;;;;;8.23;2.40;;;5.60;97.40;;;;;;4947159;29;20046;-92
2022/04/02 10:06:20;;;;;;;9.85;5.40;;;5.40;99.90;;;;;;4924414;29;20067;-94
2022/04/02 10:09:06;;;;;;;6.43;2.38;;;5.30;99.90;;;;;;4957465;29;20058;-94
2022/04/02 10:11:34;;;;;;;6.38;2.15;;;5.20;99.90;;;;;;4918305;29;20044;-95
2022/04/02 10:14:04;;;;;;;6.38;2.17;;;5.10;99.90;;;;;;4927914;29;20373;-93
2022/04/02 10:16:31;;;;;;;4.60;1.95;;;5.00;99.90;;;;;;4931257;29;20401;-93
2022/04/02 10:18:59;;;;;;;6.80;2.63;;;5.00;99.90;;;;;;4945235;29;20044;-95
2022/04/02 10:21:27;;;;;;;7.22;2.63;;;4.90;99.90;;;;;;4948462;29;20068;-92
2022/04/02 10:24:21;;;;;;;7.63;2.20;;;4.80;99.90;;;;;;4931760;29;20090;-89
2022/04/02 10:26:58;;;;;;;4.35;2.17;;;4.70;99.90;;;;;;4919733;29;20137;-91
2022/04/02 10:29:45;;;;;;;6.72;1.98;;;4.80;99.90;;;;;;4925512;29;20441;-91
2022/04/02 10:32:29;;;;;;;5.15;2.08;;;4.90;99.90;;;;;;4927252;29;20046;-90
2022/04/02 10:35:09;;;;;;;5.88;2.03;;;5.20;99.90;;;;;;4932116;29;20495;-90
2022/04/02 10:37:43;;;;;;;5.13;1.75;;;5.40;99.90;;;;;;4924898;29;20048;-93
2022/04/02 10:40:20;;;;;;;4.55;1.65;;;5.80;99.90;;;;;;4920470;29;20050;-92
2022/04/02 10:42:52;;;;;;;6.05;2.00;;;6.10;99.90;;;;;;4916394;29;20055;-93
2022/04/02 10:45:20;;;;;;;4.78;1.70;;;6.50;99.90;;;;;;4941705;29;20096;-92
2022/04/02 10:48:12;;;;;;;4.88;2.22;;;6.70;93.80;;;;;;4909286;29;20051;-94
2022/04/02 10:50:39;;;;;;;6.07;2.28;;;6.90;93.00;;;;;;4922241;29;20079;-93
2022/04/02 10:53:06;;;;;;;6.18;2.80;;;6.90;88.10;;;;;;4916245;29;20062;-94
2022/04/02 10:55:38;;;;;;;6.85;1.80;;;7.00;88.80;;;;;;4926155;29;20212;-94
2022/04/02 10:58:17;;;;;;;7.25;2.10;;;7.00;88.40;;;;;;4909996;29;20083;-95
2022/04/02 11:00:48;;;;;;;6.45;1.85;;;7.00;90.10;;;;;;4913315;29;20107;-93
2022/04/02 11:03:28;;;;;;;;;;;6.90;86.80;;;;;;4898313;29;20108;-94
2022/04/02 11:05:53;;;;;;;10.57;5.15;;;6.90;78.00;;;;;;4927319;29;19931;-93
2022/04/02 11:08:29;;;;;;;10.35;4.75;;;6.90;79.60;;;;;;4914831;29;20100;-93
2022/04/02 11:10:55;;;;;;;4.95;1.75;;;6.80;79.70;;;;;;4923690;29;20087;-96
2022/04/02 11:13:34;;;;;;;4.32;1.92;;;6.80;84.00;;;;;;4902130;29;20040;-93
2022/04/02 11:16:00;;;;;;;5.85;2.28;;;6.60;78.70;;;;;;4926150;29;20044;-92
2022/04/02 11:18:28;;;;;;;5.95;2.10;;;6.50;84.50;;;;;;4904864;29;20067;-95
2022/04/02 11:21:09;;;;;;;4.90;2.20;;;6.40;86.30;;;;;;4917860;29;20060;-95
2022/04/02 11:23:47;;;;;;;5.35;2.30;;;6.40;79.80;;;;;;4925867;29;20059;-93
2022/04/02 11:26:19;;;;;;;5.32;2.10;;;6.40;85.10;;;;;;4921562;29;20047;-90
2022/04/02 11:28:46;;;;;;;5.45;1.73;;;6.50;82.90;;;;;;4907069;29;20474;-92
2022/04/02 11:31:16;;;;;;;5.10;1.90;;;6.60;80.50;;;;;;4906320;29;20044;-91
2022/04/02 11:33:52;;;;;;;4.78;1.80;;;6.70;81.00;;;;;;4903708;29;20126;-93
2022/04/02 11:36:43;;;;;;;5.60;1.80;;;6.70;75.80;;;;;;4905750;29;20437;-96
2022/04/02 11:39:18;;;;;;;8.95;4.60;;;6.70;74.30;;;;;;4895758;29;20056;-94
2022/04/02 11:41:49;;;;;;;11.38;6.03;;;6.80;74.50;;;;;;4920101;29;20059;-94
2022/04/02 11:44:16;;;;;;;7.22;2.75;;;6.80;80.00;;;;;;4920439;29;20398;-92
2022/04/02 11:47:03;;;;;;;7.93;3.42;;;6.70;82.30;;;;;;4909407;29;20044;-91
2022/04/02 11:49:39;;;;;;;9.48;4.57;;;6.80;84.80;;;;;;4903448;29;20457;-94
2022/04/02 11:52:07;;;;;;;6.25;2.25;;;6.60;85.40;;;;;;4906704;29;20091;-93
2022/04/02 11:54:44;;;;;;;8.38;2.60;;;6.60;86.40;;;;;;4923409;29;20130;-93
2022/04/02 11:57:14;;;;;;;14.15;9.27;;;6.50;80.90;;;;;;4908514;29;20059;-93
2022/04/02 11:59:57;;;;;;;5.45;2.60;;;6.50;81.10;;;;;;4906830;29;20107;-92
2022/04/02 12:02:43;;;;;;;10.65;5.93;;;6.30;76.80;;;;;;4926592;29;20052;-93
2022/04/02 12:05:11;;;;;;;8.45;5.47;;;6.30;78.20;;;;;;4897947;29;20031;-92
2022/04/02 12:07:44;;;;;;;6.93;2.08;;;6.40;79.90;;;;;;4921381;29;20480;-91
2022/04/02 12:10:19;;;;;;;8.13;4.63;;;6.60;78.90;;;;;;4905272;29;20171;-91
2022/04/02 12:12:50;;;;;;;4.85;1.98;;;6.60;72.70;;;;;;4912062;29;20132;-88
2022/04/02 12:15:17;;;;;;;7.25;3.15;;;6.50;77.20;;;;;;4893580;29;20146;-92
2022/04/02 12:17:50;;;;;;;4.38;1.95;;;6.50;73.70;;;;;;4910501;29;20398;-92
2022/04/02 12:20:27;;;;;;;7.40;3.40;;;6.60;72.80;;;;;;4922034;29;20142;-92
2022/04/02 12:23:06;;;;;;;6.32;2.75;;;6.50;68.90;;;;;;4911699;29;20040;-91
2022/04/02 12:25:32;;;;;;;9.20;4.50;;;6.60;67.80;;;;;;4924021;29;20086;-94
2022/04/02 12:27:58;;;;;;;13.90;8.63;;;6.60;71.10;;;;;;4913206;29;20044;-92
2022/04/02 12:30:24;;;;;;;5.43;2.03;;;6.70;69.20;;;;;;4932550;28;20280;-91
2022/04/02 12:32:50;;;;;;;4.93;2.20;;;6.80;69.80;;;;;;4929522;29;20087;-92
2022/04/02 12:35:24;;;;;;;5.13;1.98;;;6.90;67.90;;;;;;4920509;29;20068;-91
2022/04/02 12:37:55;;;;;;;4.45;1.60;;;7.00;67.50;;;;;;4920253;29;20048;-94
2022/04/02 12:40:30;;;;;;;6.45;1.98;;;6.90;68.70;;;;;;4907277;29;20056;-91
2022/04/02 12:43:05;;;;;;;5.78;1.80;;;6.70;67.00;;;;;;4923958;29;20036;-92
2022/04/02 12:45:33;;;;;;;6.30;2.03;;;6.50;70.10;;;;;;4902828;29;20079;-90
2022/04/02 12:48:04;;;;;;;5.03;2.17;;;6.40;73.20;;;;;;4931111;29;20080;-92
2022/04/02 12:50:35;;;;;;;6.95;2.35;;;6.30;73.00;;;;;;4934872;29;20024;-91
2022/04/02 12:53:02;;;;;;;;;;;6.30;73.20;;;;;;4938865;28;20071;-91
2022/04/02 12:55:30;;;;;;;5.55;1.85;;;6.30;69.70;;;;;;4935058;29;20341;-91
2022/04/02 12:58:13;;;;;;;4.72;1.70;;;6.40;71.60;;;;;;4906655;29;20042;-91
2022/04/02 13:00:41;;;;;;;6.30;2.22;;;6.50;70.40;;;;;;4910867;29;20056;-91
2022/04/02 13:03:08;;;;;;;4.95;1.92;;;6.70;68.40;;;;;;4900133;29;20051;-91
2022/04/02 13:05:48;;;;;;;4.45;1.70;;;6.80;67.10;;;;;;4918709;29;20076;-90
2022/04/02 13:08:17;;;;;;;4.95;1.58;;;7.00;67.80;;;;;;4899347;29;20479;-93
2022/04/02 13:10:47;;;;;;;3.35;1.60;;;6.90;66.20;;;;;;4887819;29;20052;-91
2022/04/02 13:13:14;;;;;;;11.50;6.05;;;7.00;65.90;;;;;;4900841;29;20055;-92
2022/04/02 13:15:50;;;;;;;14.68;9.00;;;7.10;66.60;;;;;;4909437;29;20093;-92
2022/04/02 13:21:08;;;;;;;6.70;2.65;;;7.10;62.30;;;;;;4931737;29;20071;-91